createdAt,value
2018-11-23T00:00:03.308Z,570.4
2018-11-23T00:01:05.722Z,570.6
2018-11-23T00:02:07.893Z,571
2018-11-23T00:03:09.779Z,571
2018-11-23T00:04:12.215Z,571.2
2018-11-23T00:05:14.099Z,570.9
2018-11-23T00:06:16.527Z,570.9
2018-11-23T00:07:18.967Z,570.9
2018-11-23T00:08:21.112Z,570.7
2018-11-23T00:09:23.537Z,570.6
2018-11-23T00:10:25.122Z,570.6
2018-11-23T00:11:27.550Z,570.6
2018-11-23T00:12:29.176Z,570.4
2018-11-23T00:13:31.601Z,570.2
2018-11-23T00:14:34.030Z,570.1
2018-11-23T00:15:36.439Z,570.3
2018-11-23T00:16:38.597Z,570.1
2018-11-23T00:17:40.746Z,569.8
2018-11-23T00:18:42.895Z,570.2
2018-11-23T00:19:45.326Z,570.1
2018-11-23T00:20:47.747Z,570.2
2018-11-23T00:21:49.892Z,570.2
2018-11-23T00:22:51.209Z,570.2
2018-11-23T00:23:53.636Z,569.9
2018-11-23T00:24:55.796Z,569.9
2018-11-23T00:25:57.947Z,570.1
2018-11-23T00:26:59.805Z,570.1
2018-11-23T00:28:01.949Z,570.3
2018-11-23T00:29:03.864Z,570.3
2018-11-23T00:30:06.008Z,570.2
2018-11-23T00:31:08.167Z,570.2
2018-11-23T00:32:10.324Z,569.9
2018-11-23T00:33:12.757Z,569.9
2018-11-23T00:34:14.919Z,569.9
2018-11-23T00:35:17.089Z,569.9
2018-11-23T00:36:18.677Z,569.5
2018-11-23T00:37:21.105Z,569.7
2018-11-23T00:38:23.519Z,569.4
2018-11-23T00:39:25.384Z,569.4
2018-11-23T00:40:27.817Z,569.5
2018-11-23T00:41:29.408Z,569.1
2018-11-23T00:42:31.279Z,569.1
2018-11-23T00:43:33.435Z,568.8
2018-11-23T00:44:35.329Z,569
2018-11-23T00:46:42.195Z,569
2018-11-23T00:47:43.789Z,569.2
2018-11-23T00:48:45.671Z,569.1
2018-11-23T00:49:48.096Z,569.4
2018-11-23T00:50:50.261Z,569.2
2018-11-23T00:51:52.419Z,569.2
2018-11-23T00:52:54.844Z,569.7
2018-11-23T00:53:57.277Z,569.2
2018-11-23T00:54:59.707Z,569.7
2018-11-23T00:56:01.575Z,569.6
2018-11-23T00:57:03.998Z,569.4
2018-11-23T00:58:06.151Z,569.5
2018-11-23T00:59:08.042Z,569.6
2018-11-23T01:00:09.910Z,569.7
2018-11-23T01:01:12.343Z,569.6
2018-11-23T01:02:14.261Z,569.4
2018-11-23T01:03:16.414Z,569.7
2018-11-23T01:04:17.751Z,569.9
2018-11-23T01:05:19.620Z,570
2018-11-23T01:06:21.783Z,569.7
2018-11-23T01:07:23.649Z,569.8
2018-11-23T01:08:25.542Z,569.9
2018-11-23T01:09:27.958Z,569.9
2018-11-23T01:10:30.112Z,569.6
2018-11-23T01:11:31.999Z,570.1
2018-11-23T01:12:34.149Z,570
2018-11-23T01:13:36.309Z,569.6
2018-11-23T01:14:38.736Z,569.9
2018-11-23T01:15:41.169Z,569.9
2018-11-23T01:16:43.053Z,570.5
2018-11-23T01:17:45.478Z,570.1
2018-11-23T01:18:47.334Z,570.4
2018-11-23T01:19:49.225Z,570.7
2018-11-23T01:20:51.100Z,570.3
2018-11-23T01:21:52.970Z,570.4
2018-11-23T01:22:54.846Z,571
2018-11-23T01:23:57.019Z,570.9
2018-11-23T01:24:58.903Z,571
2018-11-23T01:26:01.053Z,570.9
2018-11-23T01:27:02.919Z,570.6
2018-11-23T01:28:05.343Z,570.7
2018-11-23T01:29:07.500Z,570.7
2018-11-23T01:30:09.097Z,570.7
2018-11-23T01:31:11.545Z,570.7
2018-11-23T01:32:13.679Z,570.4
2018-11-23T01:33:16.113Z,570.7
2018-11-23T01:34:18.555Z,570.8
2018-11-23T01:35:20.988Z,570.7
2018-11-23T01:36:23.438Z,570.6
2018-11-23T01:37:25.585Z,570.3
2018-11-23T01:38:28.015Z,570.7
2018-11-23T01:39:30.187Z,570.7
2018-11-23T01:40:32.053Z,570.8
2018-11-23T01:41:34.477Z,570.8
2018-11-23T01:42:36.345Z,570.7
2018-11-23T01:43:38.491Z,570.7
2018-11-23T01:44:40.915Z,570.9
2018-11-23T01:45:43.088Z,571.2
2018-11-23T01:46:45.254Z,571.2
2018-11-23T01:47:47.403Z,571
2018-11-23T01:48:49.268Z,570.8
2018-11-23T01:49:51.429Z,570.8
2018-11-23T01:50:53.584Z,570.8
2018-11-23T01:51:55.479Z,570.9
2018-11-23T01:52:57.618Z,570.8
2018-11-23T01:53:59.767Z,571
2018-11-23T01:55:01.921Z,570.7
2018-11-23T01:56:04.078Z,570.7
2018-11-23T01:57:06.216Z,570.7
2018-11-23T01:58:08.092Z,570.8
2018-11-23T01:59:10.229Z,571
2018-11-23T02:00:12.105Z,571
2018-11-23T02:01:14.275Z,570.4
2018-11-23T02:02:16.445Z,570.2
2018-11-23T02:03:18.595Z,570.4
2018-11-23T02:04:20.750Z,570
2018-11-23T02:05:22.925Z,569.9
2018-11-23T02:06:25.086Z,570.2
2018-11-23T02:07:26.974Z,570
2018-11-23T02:08:28.826Z,570.3
2018-11-23T02:09:30.963Z,570.4
2018-11-23T02:10:33.129Z,570.6
2018-11-23T02:11:35.560Z,570.2
2018-11-23T02:12:37.703Z,571
2018-11-23T02:13:39.841Z,571
2018-11-23T02:14:41.719Z,571.1
2018-11-23T02:15:43.331Z,571.2
2018-11-23T02:16:45.207Z,571.4
2018-11-23T02:17:47.099Z,571.1
2018-11-23T02:18:48.967Z,571
2018-11-23T02:19:51.399Z,570.9
2018-11-23T02:20:53.569Z,570.8
2018-11-23T02:21:56.015Z,570.7
2018-11-23T02:22:58.179Z,570.5
2018-11-23T02:24:00.599Z,570.6
2018-11-23T02:25:02.747Z,570.7
2018-11-23T02:26:04.609Z,570.4
2018-11-23T02:27:06.776Z,570.1
2018-11-23T02:28:09.189Z,570.2
2018-11-23T02:29:11.629Z,570.2
2018-11-23T02:30:13.781Z,569.9
2018-11-23T02:31:15.933Z,569.9
2018-11-23T02:32:18.370Z,570
2018-11-23T02:33:19.944Z,570.3
2018-11-23T02:34:22.103Z,570
2018-11-23T02:35:24.231Z,569.7
2018-11-23T02:36:26.378Z,570.3
2018-11-23T02:37:28.807Z,570.1
2018-11-23T02:38:30.709Z,570
2018-11-23T02:39:33.136Z,569.7
2018-11-23T02:40:35.290Z,569.7
2018-11-23T02:41:37.186Z,569.7
2018-11-23T02:42:39.349Z,569.9
2018-11-23T02:43:41.777Z,569.9
2018-11-23T02:44:44.202Z,569.8
2018-11-23T02:45:46.090Z,569.7
2018-11-23T02:46:47.970Z,570.1
2018-11-23T02:47:49.868Z,569.9
2018-11-23T02:48:52.021Z,570.2
2018-11-23T02:49:54.449Z,570.2
2018-11-23T02:50:56.620Z,569.8
2018-11-23T02:51:58.509Z,570
2018-11-23T02:53:00.130Z,569.8
2018-11-23T02:54:01.780Z,569.2
2018-11-23T02:55:03.931Z,569.5
2018-11-23T02:56:06.350Z,569.2
2018-11-23T02:57:08.220Z,569.2
2018-11-23T02:58:10.648Z,569.1
2018-11-23T02:59:13.070Z,569.1
2018-11-23T03:00:15.496Z,569.3
2018-11-23T03:01:17.645Z,569.3
2018-11-23T03:02:19.800Z,569.2
2018-11-23T03:03:21.940Z,569.2
2018-11-23T03:04:24.106Z,569.5
2018-11-23T03:05:26.275Z,569.5
2018-11-23T03:06:28.712Z,569.3
2018-11-23T03:07:30.875Z,569.2
2018-11-23T03:08:33.306Z,569
2018-11-23T03:09:35.460Z,569
2018-11-23T03:10:37.901Z,569.1
2018-11-23T03:11:39.789Z,568.8
2018-11-23T03:12:41.932Z,569
2018-11-23T03:13:43.820Z,569
2018-11-23T03:14:45.690Z,568.8
2018-11-23T03:15:47.838Z,568.7
2018-11-23T03:16:50.271Z,568.4
2018-11-23T03:17:52.439Z,568.6
2018-11-23T03:18:54.869Z,568.3
2018-11-23T03:19:57.030Z,568.7
2018-11-23T03:20:59.454Z,568.8
2018-11-23T03:22:01.335Z,568.6
2018-11-23T03:23:03.760Z,569.3
2018-11-23T03:24:05.927Z,568.5
2018-11-23T03:25:08.096Z,569
2018-11-23T03:26:10.249Z,569
2018-11-23T03:27:12.137Z,568.9
2018-11-23T03:28:14.568Z,568.9
2018-11-23T03:29:15.913Z,569.1
2018-11-23T03:30:18.067Z,569
2018-11-23T03:31:20.228Z,568.8
2018-11-23T03:32:22.393Z,568.7
2018-11-23T03:33:24.280Z,568.8
2018-11-23T03:34:26.170Z,568.7
2018-11-23T03:35:28.320Z,568.6
2018-11-23T03:36:30.189Z,568.6
2018-11-23T03:37:32.073Z,568.2
2018-11-23T03:38:33.650Z,568.6
2018-11-23T03:39:35.682Z,568.2
2018-11-23T03:40:37.525Z,568.2
2018-11-23T03:41:39.683Z,568.6
2018-11-23T03:42:42.101Z,568
2018-11-23T03:43:43.995Z,568.2
2018-11-23T03:44:46.145Z,568.3
2018-11-23T03:45:48.561Z,568.1
2018-11-23T03:46:50.710Z,568.5
2018-11-23T03:47:52.863Z,568.4
2018-11-23T03:48:54.990Z,568.3
2018-11-23T03:49:56.869Z,568.7
2018-11-23T03:50:59.305Z,568.9
2018-11-23T03:52:01.731Z,568.6
2018-11-23T03:53:03.906Z,568.6
2018-11-23T03:54:06.069Z,568.7
2018-11-23T03:55:08.235Z,568.8
2018-11-23T03:56:10.697Z,568.6
2018-11-23T03:57:12.846Z,568.9
2018-11-23T03:58:15.276Z,568.7
2018-11-23T03:59:17.707Z,568.5
2018-11-23T04:00:20.123Z,568.7
2018-11-23T04:01:22.280Z,568.8
2018-11-23T04:02:24.446Z,569.1
2018-11-23T04:03:26.877Z,568.9
2018-11-23T04:04:28.755Z,568.7
2018-11-23T04:05:30.648Z,569.5
2018-11-23T04:06:32.799Z,569.2
2018-11-23T04:07:34.965Z,569.6
2018-11-23T04:08:37.115Z,569.9
2018-11-23T04:09:39.541Z,569.7
2018-11-23T04:10:41.965Z,569.5
2018-11-23T04:11:44.114Z,569.7
2018-11-23T04:12:46.552Z,569.9
2018-11-23T04:13:48.988Z,569.7
2018-11-23T04:14:51.169Z,569.8
2018-11-23T04:15:53.599Z,569.7
2018-11-23T04:16:56.033Z,569.7
2018-11-23T04:17:58.185Z,569.7
2018-11-23T04:19:00.617Z,569.8
2018-11-23T04:20:02.780Z,569.7
2018-11-23T04:21:04.689Z,569.6
2018-11-23T04:22:06.594Z,569.2
2018-11-23T04:23:09.019Z,569.3
2018-11-23T04:24:11.444Z,569.2
2018-11-23T04:25:13.880Z,568.8
2018-11-23T04:26:15.187Z,568.6
2018-11-23T04:27:17.348Z,568.6
2018-11-23T04:28:19.477Z,567.8
2018-11-23T04:29:21.616Z,568.4
2018-11-23T04:30:23.493Z,568.2
2018-11-23T04:31:25.919Z,568.4
2018-11-23T04:32:27.775Z,568.2
2018-11-23T04:33:29.912Z,568
2018-11-23T04:34:32.343Z,568.5
2018-11-23T04:35:34.494Z,568.2
2018-11-23T04:36:36.665Z,568.6
2018-11-23T04:37:38.312Z,568.1
2018-11-23T04:38:40.743Z,568.4
2018-11-23T04:39:42.399Z,567.8
2018-11-23T04:40:44.541Z,567
2018-11-23T04:41:47.953Z,567
2018-11-23T04:42:49.817Z,566.8
2018-11-23T04:43:52.249Z,566.6
2018-11-23T04:44:54.680Z,566.9
2018-11-23T04:45:56.858Z,566.6
2018-11-23T04:46:59.019Z,566.6
2018-11-23T04:48:01.443Z,566.1
2018-11-23T04:49:03.859Z,566.1
2018-11-23T04:50:06.292Z,566.1
2018-11-23T04:51:08.154Z,565.8
2018-11-23T04:52:10.307Z,565.6
2018-11-23T04:53:12.729Z,566
2018-11-23T04:54:14.890Z,565.5
2018-11-23T04:55:16.756Z,565.5
2018-11-23T04:56:18.913Z,565.9
2018-11-23T04:57:21.330Z,565.9
2018-11-23T04:58:23.493Z,565.9
2018-11-23T04:59:25.926Z,566.4
2018-11-23T05:00:28.080Z,566.5
2018-11-23T05:01:30.231Z,566.4
2018-11-23T05:02:32.657Z,566.6
2018-11-23T05:03:34.816Z,566.2
2018-11-23T05:04:36.967Z,566.5
2018-11-23T05:05:39.389Z,566.3
2018-11-23T05:06:41.256Z,566.1
2018-11-23T05:07:43.412Z,566
2018-11-23T05:08:45.575Z,565.7
2018-11-23T05:09:48.000Z,566.1
2018-11-23T05:10:50.156Z,566.6
2018-11-23T05:11:52.311Z,566.5
2018-11-23T05:12:54.449Z,567
2018-11-23T05:13:56.867Z,566.9
2018-11-23T05:14:59.299Z,566.6
2018-11-23T05:16:01.190Z,567.2
2018-11-23T05:17:03.611Z,567
2018-11-23T05:18:05.209Z,566.7
2018-11-23T05:19:07.350Z,567.1
2018-11-23T05:20:09.510Z,567.3
2018-11-23T05:21:11.668Z,567.1
2018-11-23T05:22:13.831Z,567
2018-11-23T05:23:15.991Z,566.9
2018-11-23T05:24:18.414Z,566.7
2018-11-23T05:25:20.279Z,566.7
2018-11-23T05:26:22.471Z,566.7
2018-11-23T05:27:24.904Z,566.8
2018-11-23T05:28:27.055Z,566.9
2018-11-23T05:29:29.488Z,566.7
2018-11-23T05:30:31.905Z,566.5
2018-11-23T05:31:34.331Z,566.5
2018-11-23T05:32:36.185Z,566
2018-11-23T05:33:38.065Z,566.2
2018-11-23T05:34:40.213Z,566.6
2018-11-23T05:35:41.509Z,566.6
2018-11-23T05:36:43.938Z,566.5
2018-11-23T05:37:46.369Z,566.4
2018-11-23T05:38:48.800Z,566.6
2018-11-23T05:39:51.265Z,566.6
2018-11-23T05:40:53.151Z,566.4
2018-11-23T05:41:55.006Z,566.7
2018-11-23T05:43:04.103Z,566.5
2018-11-23T05:44:04.112Z,566.9
2018-11-23T05:45:06.258Z,567.3
2018-11-23T05:46:08.157Z,567.2
2018-11-23T05:47:10.294Z,567.1
2018-11-23T05:48:12.453Z,567.5
2018-11-23T05:49:14.624Z,567.9
2018-11-23T05:50:17.046Z,567.4
2018-11-23T05:51:19.463Z,567.3
2018-11-23T05:52:21.063Z,567.5
2018-11-23T05:53:22.915Z,567.4
2018-11-23T05:54:25.081Z,567.8
2018-11-23T05:55:26.957Z,567.6
2018-11-23T05:56:29.110Z,567.2
2018-11-23T05:57:30.971Z,567.3
2018-11-23T05:58:33.109Z,567.6
2018-11-23T05:59:35.539Z,567.4
2018-11-23T06:00:37.699Z,567.6
2018-11-23T06:01:40.120Z,567.7
2018-11-23T06:02:41.995Z,567.6
2018-11-23T06:03:43.863Z,567.8
2018-11-23T06:04:46.281Z,567.8
2018-11-23T06:05:48.431Z,568.1
2018-11-23T06:06:50.307Z,568.1
2018-11-23T06:07:52.752Z,567.9
2018-11-23T06:08:54.369Z,567.9
2018-11-23T06:09:56.261Z,567.8
2018-11-23T06:10:58.699Z,567.8
2018-11-23T06:12:00.571Z,567.9
2018-11-23T06:13:02.727Z,567.8
2018-11-23T06:14:05.157Z,567.5
2018-11-23T06:15:07.039Z,568
2018-11-23T06:16:09.199Z,567.7
2018-11-23T06:17:11.349Z,567.7
2018-11-23T06:18:13.490Z,567.7
2018-11-23T06:19:15.649Z,567.1
2018-11-23T06:20:18.094Z,567.7
2018-11-23T06:21:20.499Z,567.7
2018-11-23T06:22:22.360Z,567.7
2018-11-23T06:23:24.225Z,567.6
2018-11-23T06:25:31.395Z,568.1
2018-11-23T06:26:33.673Z,568.1
2018-11-23T06:27:35.831Z,568.6
2018-11-23T06:28:37.986Z,568.4
2018-11-23T06:29:40.142Z,568.6
2018-11-23T06:30:42.268Z,568.2
2018-11-23T06:31:44.421Z,568.2
2018-11-23T06:32:46.280Z,568.2
2018-11-23T06:33:48.141Z,568.5
2018-11-23T06:34:50.285Z,568.2
2018-11-23T06:35:52.715Z,568.2
2018-11-23T06:36:55.157Z,567.7
2018-11-23T06:37:57.035Z,567.9
2018-11-23T06:38:59.474Z,567.7
2018-11-23T06:40:01.627Z,568
2018-11-23T06:42:11.165Z,568.5
2018-11-23T06:43:13.400Z,568.5
2018-11-23T06:44:15.615Z,568.9
2018-11-23T06:45:18.091Z,569.3
2018-11-23T06:46:19.979Z,568.8
2018-11-23T06:47:22.119Z,568.9
2018-11-23T06:48:23.442Z,568.6
2018-11-23T06:49:25.309Z,568.5
2018-11-23T06:50:27.179Z,568.3
2018-11-23T06:51:29.077Z,568.3
2018-11-23T06:52:30.952Z,568.2
2018-11-23T06:53:33.115Z,568.8
2018-11-23T06:54:35.279Z,568.6
2018-11-23T06:55:37.430Z,568.5
2018-11-23T06:56:39.296Z,568.4
2018-11-23T06:57:41.179Z,567.8
2018-11-23T06:58:43.334Z,567.6
2018-11-23T06:59:45.517Z,568.1
2018-11-23T07:00:47.969Z,567.4
2018-11-23T07:01:50.405Z,567.6
2018-11-23T07:03:59.079Z,566.7
2018-11-23T07:05:01.253Z,566.3
2018-11-23T07:06:03.425Z,566.1
2018-11-23T07:07:05.573Z,566.2
2018-11-23T07:08:07.719Z,566.3
2018-11-23T07:09:10.159Z,565.8
2018-11-23T07:10:12.300Z,565.7
2018-11-23T07:11:14.459Z,565.9
2018-11-23T07:12:16.321Z,565.7
2018-11-23T07:13:18.774Z,566.3
2018-11-23T07:14:21.201Z,566.3
2018-11-23T07:15:23.631Z,565.8
2018-11-23T07:16:26.069Z,565.9
2018-11-23T07:17:27.947Z,565.5
2018-11-23T07:18:30.101Z,565.5
2018-11-23T07:19:31.970Z,566.2
2018-11-23T07:20:33.830Z,566
2018-11-23T07:21:35.992Z,566.2
2018-11-23T07:22:38.429Z,566.4
2018-11-23T07:23:40.589Z,566.4
2018-11-23T07:24:43.020Z,566.1
2018-11-23T07:25:44.649Z,566.6
2018-11-23T07:26:46.822Z,566.3
2018-11-23T07:27:49.249Z,566.2
2018-11-23T07:28:51.413Z,566.3
2018-11-23T07:29:53.268Z,566.4
2018-11-23T07:32:01.563Z,566.2
2018-11-23T07:33:03.983Z,566.4
2018-11-23T07:34:06.433Z,566.7
2018-11-23T07:35:08.904Z,566.5
2018-11-23T07:36:10.777Z,566
2018-11-23T07:37:12.699Z,566.4
2018-11-23T07:38:14.865Z,566.3
2018-11-23T07:39:17.017Z,565.7
2018-11-23T07:40:19.452Z,566.2
2018-11-23T07:41:21.892Z,565.8
2018-11-23T07:42:24.077Z,566
2018-11-23T07:43:26.507Z,565.4
2018-11-23T07:44:28.939Z,565.7
2018-11-23T07:45:31.101Z,565.7
2018-11-23T07:46:33.259Z,565.3
2018-11-23T07:47:35.121Z,565.3
2018-11-23T07:48:37.299Z,565.6
2018-11-23T07:49:39.191Z,565.7
2018-11-23T07:50:41.613Z,565.7
2018-11-23T07:51:43.772Z,565.5
2018-11-23T07:52:46.209Z,565.6
2018-11-23T07:53:48.109Z,565.5
2018-11-23T07:54:50.253Z,565.5
2018-11-23T07:55:52.675Z,565.6
2018-11-23T07:56:55.119Z,565.7
2018-11-23T07:57:56.988Z,565.8
2018-11-23T07:58:59.153Z,566.2
2018-11-23T08:00:01.040Z,566
2018-11-23T08:01:02.946Z,566.4
2018-11-23T08:02:04.837Z,566.3
2018-11-23T08:03:06.985Z,566.9
2018-11-23T08:04:09.427Z,566.4
2018-11-23T08:05:11.858Z,566.7
2018-11-23T08:06:14.296Z,566.7
2018-11-23T08:07:16.719Z,566.5
2018-11-23T08:08:19.145Z,567
2018-11-23T08:09:21.303Z,566.4
2018-11-23T08:10:23.465Z,566.3
2018-11-23T08:11:25.596Z,566.7
2018-11-23T08:12:28.035Z,566.6
2018-11-23T08:13:30.462Z,566.6
2018-11-23T08:14:32.321Z,567.3
2018-11-23T08:15:34.459Z,567.7
2018-11-23T08:16:36.633Z,567.8
2018-11-23T08:17:38.801Z,568.2
2018-11-23T08:18:40.998Z,568.4
2018-11-23T08:20:48.149Z,568.9
2018-11-23T08:21:50.309Z,568.6
2018-11-23T08:22:52.734Z,568.1
2018-11-23T08:23:54.887Z,568.5
2018-11-23T08:24:57.031Z,568.1
2018-11-23T08:25:59.457Z,567.6
2018-11-23T08:27:01.608Z,568.2
2018-11-23T08:28:03.481Z,567.7
2018-11-23T08:29:05.905Z,567.8
2018-11-23T08:30:07.768Z,567.3
2018-11-23T08:31:09.372Z,567.8
2018-11-23T08:32:11.519Z,567.8
2018-11-23T08:33:13.691Z,567.7
2018-11-23T08:34:16.115Z,567.5
2018-11-23T08:35:18.268Z,567.5
2018-11-23T08:36:20.412Z,567.7
2018-11-23T08:37:22.837Z,567.6
2018-11-23T08:38:24.738Z,567.5
2018-11-23T08:39:26.634Z,567.9
2018-11-23T08:40:28.778Z,567.6
2018-11-23T08:41:30.925Z,568.2
2018-11-23T08:42:32.818Z,568.1
2018-11-23T08:43:34.418Z,567.9
2018-11-23T08:44:36.856Z,567.9
2018-11-23T08:45:38.735Z,567.6
2018-11-23T08:46:40.888Z,567.5
2018-11-23T08:47:43.038Z,567.4
2018-11-23T08:48:45.167Z,567.6
2018-11-23T08:49:47.590Z,567.4
2018-11-23T08:50:49.744Z,567.4
2018-11-23T08:51:51.615Z,567.6
2018-11-23T08:52:54.073Z,567.7
2018-11-23T08:53:56.249Z,567.5
2018-11-23T08:54:58.394Z,567.8
2018-11-23T08:56:00.578Z,567.8
2018-11-23T08:57:03.018Z,567.9
2018-11-23T08:58:04.929Z,568.7
2018-11-23T08:59:06.518Z,568.4
2018-11-23T09:00:08.954Z,568.7
2018-11-23T09:01:11.099Z,568.3
2018-11-23T09:02:12.987Z,568.9
2018-11-23T09:03:14.868Z,568.5
2018-11-23T09:04:16.770Z,568.9
2018-11-23T09:05:19.197Z,569.2
2018-11-23T09:06:21.641Z,569.5
2018-11-23T09:07:24.073Z,569.2
2018-11-23T09:08:26.497Z,569.4
2018-11-23T09:09:28.921Z,569.2
2018-11-23T09:10:30.778Z,569.1
2018-11-23T09:11:32.408Z,568.8
2018-11-23T09:12:34.824Z,569
2018-11-23T09:13:36.967Z,568.4
2018-11-23T09:14:39.403Z,568.6
2018-11-23T09:15:41.819Z,568.3
2018-11-23T09:16:43.403Z,568.1
2018-11-23T09:17:45.578Z,568.1
2018-11-23T09:18:47.754Z,568
2018-11-23T09:19:49.632Z,568
2018-11-23T09:20:51.804Z,567.6
2018-11-23T09:21:54.234Z,567.5
2018-11-23T09:22:56.673Z,567.3
2018-11-23T09:23:58.960Z,567.1
2018-11-23T09:25:00.871Z,567.2
2018-11-23T09:26:02.476Z,567.2
2018-11-23T09:27:04.909Z,567.4
2018-11-23T09:28:07.062Z,567.6
2018-11-23T09:29:09.213Z,567.6
2018-11-23T09:30:11.367Z,567.8
2018-11-23T09:31:13.797Z,567.7
2018-11-23T09:32:16.236Z,568
2018-11-23T09:33:18.391Z,568.5
2018-11-23T09:34:20.828Z,568.9
2018-11-23T09:35:22.982Z,568.8
2018-11-23T09:36:25.405Z,568.9
2018-11-23T09:37:27.551Z,569.1
2018-11-23T09:38:29.761Z,568.9
2018-11-23T09:39:31.903Z,569.3
2018-11-23T09:40:33.776Z,569.3
2018-11-23T09:41:36.203Z,569.7
2018-11-23T09:42:38.624Z,570
2018-11-23T09:43:41.198Z,570.4
2018-11-23T09:44:43.631Z,570.6
2018-11-23T09:45:45.770Z,570.7
2018-11-23T09:46:47.355Z,570.5
2018-11-23T09:47:49.779Z,570.4
2018-11-23T09:48:51.677Z,570.9
2018-11-23T09:49:54.108Z,570.4
2018-11-23T09:50:56.523Z,570.4
2018-11-23T09:51:58.148Z,570.5
2018-11-23T09:53:00.301Z,570.6
2018-11-23T09:54:02.723Z,570.3
2018-11-23T09:55:04.307Z,570.6
2018-11-23T09:56:06.738Z,570.4
2018-11-23T09:57:09.188Z,570.1
2018-11-23T09:58:11.617Z,570.7
2018-11-23T09:59:13.777Z,570.7
2018-11-23T10:00:15.664Z,571
2018-11-23T10:01:17.840Z,571.2
2018-11-23T10:02:19.992Z,571.4
2018-11-23T10:03:21.888Z,571.2
2018-11-23T10:04:24.035Z,571.3
2018-11-23T10:05:26.455Z,571.7
2018-11-23T10:06:28.619Z,572.1
2018-11-23T10:07:31.040Z,572.3
2018-11-23T10:09:38.464Z,572.4
2018-11-23T10:10:40.610Z,572.4
2018-11-23T10:11:42.490Z,572.7
2018-11-23T10:12:44.922Z,572.9
2018-11-23T10:13:47.074Z,573.2
2018-11-23T10:14:49.228Z,573.6
2018-11-23T10:15:51.660Z,574
2018-11-23T10:16:53.806Z,574.2
2018-11-23T10:17:56.250Z,574.2
2018-11-23T10:18:58.429Z,574.5
2018-11-23T10:20:00.343Z,574.6
2018-11-23T10:21:02.488Z,575
2018-11-23T10:22:04.670Z,574.9
2018-11-23T10:23:07.112Z,575
2018-11-23T10:24:09.330Z,574.9
2018-11-23T10:25:11.478Z,574.6
2018-11-23T10:26:13.648Z,574.9
2018-11-23T10:27:15.239Z,575.1
2018-11-23T10:28:17.680Z,575.1
2018-11-23T10:29:19.831Z,574.8
2018-11-23T10:30:21.695Z,575.2
2018-11-23T10:31:23.840Z,575.3
2018-11-23T10:32:25.771Z,575.4
2018-11-23T10:33:30.114Z,575.9
2018-11-23T10:34:32.546Z,576.4
2018-11-23T10:35:34.506Z,576.3
2018-11-23T10:36:36.644Z,576.8
2018-11-23T10:37:38.798Z,576.8
2018-11-23T10:38:40.959Z,576.7
2018-11-23T10:39:43.379Z,577.1
2018-11-23T10:40:45.283Z,577.3
2018-11-23T10:41:47.719Z,577.7
2018-11-23T10:42:49.339Z,577.6
2018-11-23T10:43:51.228Z,577.6
2018-11-23T10:44:53.416Z,577.9
2018-11-23T10:45:55.560Z,577.8
2018-11-23T10:46:57.427Z,577.8
2018-11-23T10:47:59.851Z,578.3
2018-11-23T10:49:01.716Z,578.3
2018-11-23T10:50:03.866Z,578.2
2018-11-23T10:51:06.333Z,578.5
2018-11-23T10:52:08.778Z,578.3
2018-11-23T10:53:11.210Z,578.1
2018-11-23T10:54:13.649Z,578.1
2018-11-23T10:55:16.103Z,578.9
2018-11-23T10:56:18.516Z,578.6
2018-11-23T10:57:20.946Z,579
2018-11-23T10:58:23.104Z,578.4
2018-11-23T10:59:25.536Z,579
2018-11-23T11:00:27.424Z,579.3
2018-11-23T11:01:29.558Z,578.9
2018-11-23T11:02:31.737Z,579.4
2018-11-23T11:03:34.160Z,579.1
2018-11-23T11:04:36.324Z,579.4
2018-11-23T11:05:38.476Z,579.6
2018-11-23T11:06:40.900Z,579.9
2018-11-23T11:07:43.324Z,579.9
2018-11-23T11:08:45.475Z,580.3
2018-11-23T11:09:47.610Z,580
2018-11-23T11:10:49.692Z,580.3
2018-11-23T11:11:52.124Z,580.1
2018-11-23T11:12:54.567Z,580.1
2018-11-23T11:13:56.721Z,580.3
2018-11-23T11:14:58.309Z,580.3
2018-11-23T11:16:00.736Z,580.6
2018-11-23T11:17:02.622Z,580.9
2018-11-23T11:18:05.049Z,580.8
2018-11-23T11:19:06.910Z,580.7
2018-11-23T11:20:08.799Z,580.9
2018-11-23T11:21:10.971Z,581.1
2018-11-23T11:22:13.118Z,580.9
2018-11-23T11:23:15.547Z,581.2
2018-11-23T11:24:17.431Z,581.1
2018-11-23T11:25:19.587Z,581.3
2018-11-23T11:26:22.020Z,581.2
2018-11-23T11:27:24.170Z,581.1
2018-11-23T11:28:26.348Z,581.6
2018-11-23T11:29:28.504Z,582
2018-11-23T11:30:30.925Z,582
2018-11-23T11:31:33.352Z,582
2018-11-23T11:32:35.791Z,582.5
2018-11-23T11:33:37.974Z,582.5
2018-11-23T11:34:40.407Z,582
2018-11-23T11:35:42.561Z,581.9
2018-11-23T11:36:44.736Z,581.8
2018-11-23T11:37:46.620Z,581.6
2018-11-23T11:38:48.767Z,581.7
2018-11-23T11:39:50.928Z,581.6
2018-11-23T11:40:53.359Z,582
2018-11-23T11:41:55.528Z,581.8
2018-11-23T11:42:57.409Z,581.7
2018-11-23T11:43:59.560Z,581.9
2018-11-23T11:45:01.732Z,581.3
2018-11-23T11:46:03.884Z,581.8
2018-11-23T11:47:06.016Z,581.8
2018-11-23T11:48:08.437Z,581.7
2018-11-23T11:49:10.588Z,582.1
2018-11-23T11:50:13.028Z,582.1
2018-11-23T11:52:21.929Z,582.8
2018-11-23T11:53:23.796Z,582.7
2018-11-23T11:54:25.953Z,583.2
2018-11-23T11:55:28.113Z,583.8
2018-11-23T11:56:30.539Z,583.6
2018-11-23T11:57:32.672Z,584.1
2018-11-23T11:58:34.833Z,584.1
2018-11-23T11:59:36.438Z,584.9
2018-11-23T12:00:38.878Z,584.9
2018-11-23T12:01:41.294Z,584.4
2018-11-23T12:02:43.166Z,585.1
2018-11-23T12:03:45.588Z,585.3
2018-11-23T12:04:48.018Z,585.2
2018-11-23T12:05:49.910Z,585.4
2018-11-23T12:06:52.335Z,585.4
2018-11-23T12:07:54.203Z,585.1
2018-11-23T12:08:56.356Z,585.3
2018-11-23T12:09:58.800Z,585.4
2018-11-23T12:11:00.953Z,585.4
2018-11-23T12:12:03.107Z,585.3
2018-11-23T12:13:05.284Z,585.8
2018-11-23T12:14:07.705Z,586.1
2018-11-23T12:15:09.632Z,586.3
2018-11-23T12:16:11.285Z,586.5
2018-11-23T12:17:13.449Z,586.9
2018-11-23T12:18:15.331Z,587
2018-11-23T12:19:17.503Z,586.9
2018-11-23T12:20:19.635Z,587.3
2018-11-23T12:21:22.077Z,587.2
2018-11-23T12:22:24.508Z,587.3
2018-11-23T12:23:26.389Z,587.7
2018-11-23T12:24:28.565Z,587.9
2018-11-23T12:25:30.456Z,587.4
2018-11-23T12:26:32.062Z,588
2018-11-23T12:27:34.222Z,588.4
2018-11-23T12:28:36.388Z,588.5
2018-11-23T12:29:38.286Z,589
2018-11-23T12:30:40.444Z,588.8
2018-11-23T12:31:42.589Z,589.2
2018-11-23T12:32:44.687Z,589.3
2018-11-23T12:33:46.723Z,589.7
2018-11-23T12:34:49.155Z,589.9
2018-11-23T12:35:51.061Z,590.3
2018-11-23T12:36:53.944Z,589.9
2018-11-23T12:37:55.861Z,590.2
2018-11-23T12:38:58.302Z,590.7
2018-11-23T12:40:00.475Z,590.3
2018-11-23T12:41:02.632Z,591
2018-11-23T12:42:04.504Z,591.2
2018-11-23T12:43:06.979Z,591.1
2018-11-23T12:44:09.421Z,591.5
2018-11-23T12:45:11.847Z,591.3
2018-11-23T12:46:14.021Z,591.1
2018-11-23T12:47:15.926Z,591.2
2018-11-23T12:48:18.111Z,591.7
2018-11-23T12:49:20.550Z,592.1
2018-11-23T12:50:22.457Z,592.7
2018-11-23T12:51:24.645Z,593.2
2018-11-23T12:52:26.530Z,593.3
2018-11-23T12:53:28.887Z,593.6
2018-11-23T12:54:31.050Z,593.3
2018-11-23T12:55:33.376Z,593.2
2018-11-23T12:56:35.545Z,593.3
2018-11-23T12:57:37.696Z,593.4
2018-11-23T12:58:39.592Z,593.5
2018-11-23T12:59:42.040Z,593.7
2018-11-23T13:00:44.369Z,593.6
2018-11-23T13:01:47.216Z,593.8
2018-11-23T13:02:49.348Z,593.6
2018-11-23T13:03:51.530Z,594.2
2018-11-23T13:04:53.799Z,594.2
2018-11-23T13:05:55.959Z,593.7
2018-11-23T13:06:58.172Z,594.2
2018-11-23T13:08:00.312Z,594.1
2018-11-23T13:09:02.460Z,593.9
2018-11-23T13:10:04.621Z,594
2018-11-23T13:11:07.100Z,593.8
2018-11-23T13:12:08.983Z,593.7
2018-11-23T13:13:11.419Z,593.8
2018-11-23T13:14:13.355Z,593.7
2018-11-23T13:15:15.262Z,593.9
2018-11-23T13:16:17.432Z,593.7
2018-11-23T13:17:19.602Z,593.9
2018-11-23T13:18:21.782Z,594.1
2018-11-23T13:19:23.669Z,593.9
2018-11-23T13:20:25.281Z,594
2018-11-23T13:21:26.912Z,594.1
2018-11-23T13:22:29.354Z,593.7
2018-11-23T13:23:31.234Z,594
2018-11-23T13:24:33.127Z,593.4
2018-11-23T13:25:35.301Z,594
2018-11-23T13:26:37.196Z,593.9
2018-11-23T13:27:39.379Z,594.1
2018-11-23T13:28:41.535Z,593.7
2018-11-23T13:29:43.635Z,593.9
2018-11-23T13:30:45.580Z,594.2
2018-11-23T13:31:47.839Z,594.1
2018-11-23T13:32:49.441Z,593.7
2018-11-23T13:33:51.874Z,593.7